• Join FlightAware (Why Join?)
  • Login
  • US Flag 
12:51PM EDT


 

Airport Tracker/Info


-or-


 

Live Flight TrackerFlight Track Log ✈ N924AK ✈ 20-May-2013 ✈ KSFO - KLAS

Flight Track Log - Related Links

Times and Time Zones

All times are in EDT time to prevent confusion due to time zone crossing. See the N924AK flight status page for this flight to view local times or setup timezone preferences in your user account.

Time Position Orientation Groundspeed Altitude Reporting Facility
EDT Latitude Longitude Course Direction KTS MPH feet Rate Location/Type
04:26AM 37.6667 -122.4000 338° Northwest 196 226 3,900  Level Northern Cal TRACON
04:26AM 37.6667 -122.3667 90° East 208 239 5,300 2,280 Climbing Northern Cal TRACON
04:26AM 37.6639 -122.3494 102° East 207 238 5,800 3,000 Climbing Oakland Center
04:27AM 37.6408 -122.2722 111° Southeast 230 265 9,200 3,180 Climbing Oakland Center
04:28AM 37.6100 -122.1661 110° East 272 313 12,300 2,580 Climbing Oakland Center
04:29AM 37.5783 -122.0589 110° East 322 371 14,400 2,100 Climbing Oakland Center
04:30AM 37.5433 -121.9400 110° East 359 413 16,600 1,980 Climbing Oakland Center
04:31AM 37.5053 -121.8142 111° Southeast 382 440 18,400 1,740 Climbing Oakland Center
04:32AM 37.4650 -121.6789 111° Southeast 411 473 20,100 1,800 Climbing Oakland Center
04:33AM 37.4222 -121.5392 111° Southeast 428 493 22,100 1,980 Climbing Oakland Center
04:34AM 37.3794 -121.3956 111° Southeast 437 503 24,100 1,920 Climbing Oakland Center
04:35AM 37.3383 -121.2628 111° Southeast 444 511 26,000 1,920 Climbing Oakland Center
04:36AM 37.2942 -121.1142 110° East 452 520 28,000 1,920 Climbing Oakland Center
04:38AM 37.2475 -120.9681 112° Southeast 453 521 29,900 1,800 Climbing Oakland Center
04:39AM 37.2017 -120.8181 111° Southeast 458 527 31,700 1,800 Climbing Oakland Center
04:40AM 37.1700 -120.6636 104° East 468 539 33,600 1,920 Climbing Oakland Center
04:41AM 37.1414 -120.5119 103° East 451 519 35,600 1,800 Climbing Oakland Center
04:42AM 37.1142 -120.3619 103° East 444 511 37,300 1,320 Climbing Oakland Center
04:43AM 37.0861 -120.2119 103° East 444 511 38,300 780 Climbing Oakland Center
04:44AM 37.0581 -120.0572 103° East 452 520 38,900 300 Climbing Oakland Center
04:45AM 37.0294 -119.8978 103° East 466 536 39,000  Climbing Oakland Center
04:46AM 36.9983 -119.7283 103° East 496 571 39,000  Level Oakland Center
04:47AM 36.9653 -119.5553 103° East 513 590 39,000  Level Oakland Center
04:48AM 36.9319 -119.3806 103° East 517 595 39,000  Level Oakland Center
04:49AM 36.8983 -119.2069 104° East 514 592 39,000  Level Oakland Center
04:50AM 36.8644 -119.0342 104° East 514 592 39,000  Level Oakland Center
04:51AM 36.8306 -118.8614 104° East 513 590 39,000  Level Oakland Center
04:52AM 36.7961 -118.6903 104° East 511 588 39,000  Level Oakland Center
04:53AM 36.7611 -118.5164 104° East 517 595 39,000  Level Oakland Center
04:54AM 36.7289 -118.3547 104° East 508 585 39,000  Level Oakland Center
04:55AM 36.6950 -118.1853 104° East 505 581 39,000  Level Oakland Center
04:56AM 36.6592 -118.0119 104° East 512 589 39,000 -780 Level Oakland Center
04:57AM 36.6194 -117.8264 105° East 511 588 37,500 -1,680 Descending Los Angeles Center
04:58AM 36.5850 -117.6558 104° East 509 586 35,700 -1,920 Descending Los Angeles Center
04:59AM 36.5494 -117.4897 105° East 499 574 33,700 -1,980 Descending Los Angeles Center
05:00AM 36.5153 -117.3242 104° East 496 571 31,800 -1,920 Descending Los Angeles Center
05:01AM 36.4797 -117.1594 105° East 494 568 29,900 -1,440 Descending Los Angeles Center
05:02AM 36.4428 -116.9914 105° East 502 578 29,000 -1,140 Descending Los Angeles Center
05:03AM 36.4072 -116.8231 105° East 504 580 27,700 -1,740 Descending Los Angeles Center
05:04AM 36.3706 -116.6553 105° East 503 579 25,600 -2,100 Descending Los Angeles Center
05:05AM 36.3347 -116.4922 105° East 496 571 23,600 -2,100 Descending Los Angeles Center
05:06AM 36.2992 -116.3281 105° East 494 568 21,500 -2,100 Descending Los Angeles Center
05:07AM 36.2636 -116.1719 106° East 470 541 19,400 -2,160 Descending Los Angeles Center
05:08AM 36.2267 -116.0264 107° East 450 518 17,300 -1,860 Descending Los Angeles Center
05:08AM 36.2053 -115.9242 105° East 444 511 16,300 -1,260 Descending Los Angeles Center
05:09AM 36.1947 -115.8794 106° East 440 506 16,000 -1,020 Descending Los Angeles Center
05:09AM 36.1356 -115.7978 132° Southeast 428 493 15,300 -1,140 Descending Los Angeles Center
05:10AM 36.1144 -115.7692 132° Southeast 438 504 14,900 -1,620 Descending Los Angeles Center
05:10AM 36.0592 -115.6919 132° Southeast 411 473 13,700 -1,620 Descending Los Angeles Center
05:11AM 36.0408 -115.6656 131° Southeast 409 471 13,300 -1,500 Descending Los Angeles Center
05:11AM 35.9883 -115.5928 132° Southeast 391 450 12,200 -1,500 Descending Los Angeles Center
05:12AM 35.9725 -115.5636 124° Southeast 390 449 11,800 -1,200 Descending Los Angeles Center
05:12AM 35.9542 -115.4739 104° East 354 407 11,000 -900 Descending Los Angeles Center
05:13AM 35.9519 -115.4467 96° East 362 417 10,900 -900 Descending Los Angeles Center
05:13AM 35.9411 -115.3719 100° East 296 341 10,100 -1,200 Descending Los Angeles Center
05:14AM 35.9386 -115.3475 97° East 326 375 9,700 -2,280 Descending Los Angeles Center
05:14AM 35.9350 -115.2836 94° East 235 270 7,800 -2,220 Descending Los Angeles Center
05:15AM 35.9394 -115.2706 67° East 270 311 7,500 -2,040 Descending Los Angeles Center
05:15AM 35.9631 -115.2347 51° Northeast 173 199 5,800 -1,620 Descending Los Angeles Center
05:16AM 35.9708 -115.2242 48° Northeast 212 244 5,900 -1,620 Climbing Los Angeles Center
05:16AM 36.0017 -115.2139 15° North 148 170 4,200 -840 Descending Los Angeles Center
05:17AM 36.0056 -115.1964 75° East 203 234 5,100 -1,020 Climbing Los Angeles Center
05:17AM 36.0358 -115.1919 North 133 153 3,200 -1,620 Descending Los Angeles Center
05:18AM 36.0686 -115.1733 25° Northeast 130 150 2,300 -480 Descending Los Angeles Center
05:19AM 36.0703 -115.1728 15° North 121 139 2,600 -240 Climbing Los Angeles Center
05:20AM 36.1047 -115.1525 25° Northeast 126 145 2,000 -600 Descending Los Angeles Center